Latest Coastal Weather Observations for Edithburgh

IDS60701

Issued at 5:41 pm CDT Thursday 19 October 2017 (issued every 10 minutes, with the page automatically refreshed every 10 minutes)

About coastal observations | Map of coastal stations | Coastal observations for SA | Marine services | Other Formats
Station Details ID: 022046 Name: EDITHBURGH Lat: -35.11 Lon: 137.74 Height: 6.0 m
Data from the previous 72 hours. | See also: Recent months at Edithburgh
Date/Time
CDT
Temp
°C
Wind Pressure Rain since
9am
mm
Weather Cloud Vis
km
Sea
Height
m
Swell
Dir  Spd
kts
Gust
kts
hPa Trend Height
m
Period
s
Dir
19/05:30pm 17.4 WSW 15 21 1024.0 - 0.0 - - - - - - -
19/05:00pm 18.0 WSW 15 23 1023.7 - 0.0 - - - - - - -
19/04:30pm 18.0 WSW 16 22 1023.5 - 0.0 - - - - - - -
19/04:00pm 18.8 WSW 16 21 1023.3 - 0.0 - - - - - - -
19/03:30pm 18.9 WSW 16 23 1023.2 - 0.0 - - - - - - -
19/03:00pm 19.8 WSW 14 21 1023.2 - 0.0 - - - - - - -
19/02:30pm 19.6 WSW 14 22 1023.1 - 0.0 - - - - - - -
19/02:00pm 19.3 WSW 13 19 1023.1 - 0.0 - - - - - - -
19/01:30pm 19.5 WSW 13 18 1022.8 - 0.0 - - - - - - -
19/01:00pm 18.8 WSW 12 19 1022.9 - 0.0 - - - - - - -
19/12:30pm 18.5 WSW 12 17 1022.9 - 0.0 - - - - - - -
19/12:00pm 17.7 WSW 12 19 1022.5 - 0.0 - - - - - - -
19/11:30am 18.1 WSW 10 16 1022.8 - 0.0 - - - - - - -
19/11:00am 18.3 WSW 11 17 1022.7 - 0.0 - - - - - - -
19/10:30am 16.8 SW 11 17 1022.3 - 0.0 - - - - - - -
19/10:00am 16.9 SW 12 17 1021.8 - 0.0 - - - - - - -
19/09:30am 16.6 SW 13 17 1020.9 - 0.0 - - - - - - -
19/09:00am 16.0 SW 12 18 1020.2 - 3.8 - - - - - - -
19/08:30am 15.7 SW 9 13 1020.1 - 3.8 - - - - - - -
19/08:00am 15.3 WSW 10 15 1019.5 - 3.8 - - - - - - -
19/07:30am 14.7 SW 9 13 1018.5 - 3.8 - - - - - - -
19/07:00am 15.3 SW 11 14 1017.7 - 3.8 - - - - - - -
19/06:30am 15.4 SW 12 16 1017.0 - 3.8 - - - - - - -
19/06:00am 15.7 W 10 14 1016.4 - 3.8 - - - - - - -
19/05:30am 15.9 W 10 13 1015.1 - 3.8 - - - - - - -
19/05:00am 16.4 WNW 8 10 1014.9 - 3.8 - - - - - - -
19/04:30am 16.3 NW 7 8 1014.7 - 3.8 - - - - - - -
19/04:00am 16.6 WNW 8 10 1014.4 - 3.8 - - - - - - -
19/03:30am 16.8 NW 4 5 1014.0 - 3.8 - - - - - - -
19/03:00am 18.4 N 6 10 1014.0 - 3.8 Recent precip. - - - - - -
19/02:30am 18.7 N 8 12 1014.2 - 3.8 - - - - - - -
19/02:00am 18.7 NNE 9 14 1013.9 - 3.6 - - - - - - -
19/01:30am 18.9 NNE 10 16 1013.6 - 3.6 - - - - - - -
19/01:00am 18.6 NNE 8 13 1014.2 - 3.2 - - - - - - -
19/12:30am 18.5 NNE 5 8 1015.1 - 3.0 - - - - - - -
19/12:00am 19.0 NE 3 5 1015.1 - 2.6 Recent precip. - - - - - -
 
Date/Time
CDT
Temp
°C
Wind Pressure Rain since
9am
mm
Weather Cloud Vis
km
Sea
Height
m
Swell
Dir  Spd
kts
Gust
kts
hPa Trend Height
m
Period
s
Dir
18/11:30pm 19.1 SE 3 5 1015.0 - 2.4 - - - - - - -
18/11:00pm 19.3 SSW 4 5 1014.8 - 2.4 - - - - - - -
18/10:30pm 19.1 SSW 3 5 1014.6 - 2.4 - - - - - - -
18/10:00pm 19.2 SSW 5 6 1014.3 - 2.4 - - - - - - -
18/09:30pm 19.0 SW 4 5 1014.6 - 2.4 - - - - - - -
18/09:00pm 19.1 SSW 5 7 1014.6 - 2.4 Recent precip. - - - - - -
18/08:30pm 18.9 SW 8 9 1013.5 - 2.4 - - - - - - -
18/08:00pm 19.1 WSW 7 12 1014.4 - 2.0 - - - - - - -
18/07:46pm 19.2 SW 10 14 1014.5 - 0.8 - - - - - - -
18/07:30pm 19.6 SW 12 17 1012.5 - 0.6 - - - - - - -
18/07:00pm 23.4 SW 15 20 1011.9 - 0.0 - - - - - - -
18/06:30pm 24.5 SW 10 13 1011.3 - 0.0 - - - - - - -
18/06:00pm 26.6 NNE 4 6 1010.6 - 0.0 - - - - - - -
18/05:30pm 27.4 NE 6 9 1010.6 - 0.0 - - - - - - -
18/05:00pm 27.9 NE 7 10 1010.6 - 0.0 - - - - - - -
18/04:30pm 29.2 NE 7 11 1010.7 - 0.0 - - - - - - -
18/04:00pm 29.8 NNE 8 17 1011.0 - 0.0 - - - - - - -
18/03:57pm 30.0 N 11 17 1011.0 - 0.0 - - - - - - -
18/03:30pm 35.3 NNW 14 23 1011.2 - 0.0 - - - - - - -
18/03:00pm 34.0 NNW 15 21 1011.6 - 0.0 - - - - - - -
18/02:30pm 33.5 NNW 16 22 1012.0 - 0.0 - - - - - - -
18/02:00pm 34.2 NNW 17 22 1012.3 - 0.0 - - - - - - -
18/01:30pm 33.4 NNW 19 25 1012.5 - 0.0 - - - - - - -
18/01:00pm 33.3 NNW 21 28 1012.7 - 0.0 - - - - - - -
18/12:42pm 33.2 NW 22 32 1012.8 - 0.0 - - - - - - -
18/12:30pm 32.3 NW 22 29 1012.9 - 0.0 - - - - - - -
18/12:21pm 33.0 NNW 18 29 1012.9 - 0.0 - - - - - - -
18/12:00pm 32.8 NNW 19 26 1013.3 - 0.0 - - - - - - -
18/11:58am 33.1 NNW 19 26 1013.3 - 0.0 - - - - - - -
18/11:30am 30.4 N 9 18 1013.7 - 0.0 - - - - - - -
18/11:15am 31.0 N 12 22 1013.7 - 0.0 - - - - - - -
18/11:00am 26.0 NE 10 16 1013.8 - 0.0 - - - - - - -
18/10:30am 23.8 NNE 7 11 1014.2 - 0.0 - - - - - - -
18/10:00am 22.4 NNE 7 12 1014.2 - 0.0 - - - - - - -
18/09:30am 22.9 NNE 8 12 1014.2 - 0.0 - - - - - - -
18/09:00am 21.7 NNE 8 12 1014.2 - 0.0 - - - - - - -
18/08:30am 21.1 NNE 7 12 1014.0 - 0.0 - - - - - - -
18/08:00am 20.2 NNE 6 12 1013.9 - 0.0 - - - - - - -
18/07:30am 19.5 NNE 7 9 1013.7 - 0.0 - - - - - - -
18/07:00am 19.1 NNE 8 12 1013.6 - 0.0 - - - - - - -
18/06:30am 18.7 NNE 7 11 1013.2 - 0.0 - - - - - - -
18/06:00am 18.8 NNE 7 11 1013.0 - 0.0 - - - - - - -
18/05:30am 18.8 NNE 7 11 1012.9 - 0.0 - - - - - - -
18/05:00am 18.9 NNE 8 13 1012.6 - 0.0 - - - - - - -
18/04:30am 18.7 NNE 8 12 1012.5 - 0.0 - - - - - - -
18/04:00am 18.9 NNE 7 11 1012.9 - 0.0 - - - - - - -
18/03:30am 18.8 NNE 8 11 1012.9 - 0.0 - - - - - - -
18/03:00am 18.5 NE 7 10 1013.2 - 0.0 - - - - - - -
18/02:30am 18.8 NE 6 9 1013.6 - 0.0 - - - - - - -
18/02:00am 18.9 NNE 6 8 1013.6 - 0.0 - - - - - - -
18/01:30am 19.1 NE 5 7 1013.8 - 0.0 - - - - - - -
18/01:00am 19.3 NNE 4 7 1013.9 - 0.0 - - - - - - -
18/12:30am 19.5 NNE 5 7 1014.0 - 0.0 - - - - - - -
18/12:00am 19.9 NNE 6 8 1014.2 - 0.0 - - - - - - -
 
Date/Time
CDT
Temp
°C
Wind Pressure Rain since
9am
mm
Weather Cloud Vis
km
Sea
Height
m
Swell
Dir  Spd
kts
Gust
kts
hPa Trend Height
m
Period
s
Dir
17/11:30pm 19.2 NE 6 7 1014.4 - 0.0 - - - - - - -
17/11:00pm 17.6 NE 4 5 1014.3 - 0.0 - - - - - - -
17/10:30pm 18.1 NNE 3 5 1014.5 - 0.0 - - - - - - -
17/10:00pm 18.4 NE 3 3 1014.5 - 0.0 - - - - - - -
17/09:30pm 18.6 CALM 0 0 1014.4 - 0.0 - - - - - - -
17/09:00pm 18.6 CALM 0 1 1014.2 - 0.0 - - - - - - -
17/08:30pm 18.8 ESE 4 6 1013.8 - 0.0 - - - - - - -
17/08:00pm 20.3 ESE 5 6 1013.7 - 0.0 - - - - - - -
17/07:30pm 21.8 SE 6 8 1013.5 - 0.0 - - - - - - -
17/07:00pm 23.8 E 8 9 1013.1 - 0.0 - - - - - - -
17/06:30pm 26.7 CALM 0 0 1013.2 - 0.0 - - - - - - -
17/06:00pm 27.4 NNE 3 5 1013.3 - 0.0 - - - - - - -
17/05:30pm 26.4 NE 6 9 1013.2 - 0.0 - - - - - - -
17/05:00pm 27.4 NE 6 9 1013.0 - 0.0 - - - - - - -
17/04:30pm 27.9 NNE 7 10 1013.1 - 0.0 - - - - - - -
17/04:00pm 28.2 NNE 6 11 1013.2 - 0.0 - - - - - - -
17/03:30pm 27.1 NNE 7 11 1013.3 - 0.0 - - - - - - -
17/03:00pm 26.1 NE 8 13 1013.7 - 0.0 - - - - - - -
17/02:30pm 26.7 NNE 8 14 1014.0 - 0.0 - - - - - - -
17/02:00pm 26.6 NNE 8 13 1014.3 - 0.0 - - - - - - -
17/01:30pm 25.8 NNE 8 13 1014.5 - 0.0 - - - - - - -
17/01:00pm 25.4 NNE 8 13 1014.8 - 0.0 - - - - - - -
17/12:30pm 25.3 NNE 9 13 1015.1 - 0.0 - - - - - - -
17/12:00pm 25.4 NNE 8 13 1015.5 - 0.0 - - - - - - -
17/11:30am 24.4 NNE 8 13 1015.9 - 0.0 - - - - - - -
17/11:00am 23.1 NNE 10 15 1015.9 - 0.0 - - - - - - -
17/10:30am 22.9 NNE 9 15 1015.9 - 0.0 - - - - - - -
17/10:00am 21.4 NNE 9 14 1015.9 - 0.0 - - - - - - -
17/09:30am 20.9 NE 9 13 1015.9 - 0.0 - - - - - - -
17/09:00am 21.1 NNE 8 11 1015.7 - 0.0 - - - - - - -
17/08:30am 20.5 NNE 7 11 1015.9 - 0.0 - - - - - - -
17/08:00am 19.9 NNE 7 10 1015.7 - 0.0 - - - - - - -
17/07:30am 19.1 NNE 8 11 1015.3 - 0.0 - - - - - - -
17/07:00am 18.3 NNE 7 11 1015.0 - 0.0 - - - - - - -
17/06:30am 18.1 NNE 7 10 1014.7 - 0.0 - - - - - - -
17/06:00am 18.4 NNE 8 12 1014.5 - 0.0 - - - - - - -
17/05:30am 17.4 NNE 5 8 1014.4 - 0.0 - - - - - - -
17/05:00am 17.9 NNE 6 9 1014.3 - 0.0 - - - - - - -
17/04:30am 18.0 NNE 5 9 1014.3 - 0.0 - - - - - - -
17/04:00am 18.3 NNE 6 10 1014.1 - 0.0 - - - - - - -
17/03:30am 18.5 NNE 6 9 1014.3 - 0.0 - - - - - - -
17/03:00am 18.9 NNE 6 8 1014.5 - 0.0 - - - - - - -
17/02:30am 19.5 NNE 6 10 1014.6 - 0.0 - - - - - - -
17/02:00am 19.2 NE 7 10 1014.7 - 0.0 - - - - - - -
17/01:30am 20.2 NNE 5 9 1015.4 - 0.0 - - - - - - -
17/01:00am 19.1 ENE 6 8 1015.7 - 0.0 - - - - - - -
17/12:30am 18.7 ENE 6 8 1016.0 - 0.0 - - - - - - -
17/12:00am 19.6 ENE 4 5 1016.4 - 0.0 - - - - - - -
 
Date/Time
CDT
Temp
°C
Wind Pressure Rain since
9am
mm
Weather Cloud Vis
km
Sea
Height
m
Swell
Dir  Spd
kts
Gust
kts
hPa Trend Height
m
Period
s
Dir
16/11:30pm 19.8 NE 5 6 1016.7 - 0.0 - - - - - - -
16/11:00pm 19.4 NE 4 7 1016.6 - 0.0 - - - - - - -
16/10:30pm 18.7 ENE 4 6 1016.7 - 0.0 - - - - - - -
16/10:00pm 18.2 SSE 5 6 1016.6 - 0.0 - - - - - - -
16/09:30pm 18.9 SSE 6 8 1016.5 - 0.0 - - - - - - -
16/09:00pm 19.4 SSE 7 9 1016.2 - 0.0 - - - - - - -
16/08:30pm 19.8 S 7 8 1015.9 - 0.0 - - - - - - -
16/08:00pm 19.8 S 7 9 1015.8 - 0.0 - - - - - - -
16/07:30pm 20.8 S 6 8 1015.8 - 0.0 - - - - - - -
16/07:00pm 22.0 SSE 7 9 1015.7 - 0.0 - - - - - - -
16/06:30pm 22.5 SSE 7 9 1015.8 - 0.0 - - - - - - -
16/06:00pm 22.9 SE 8 10 1015.8 - 0.0 - - - - - - -

Other Formats:

Comma delimited format used in spreadsheet applications
http://www.bom.gov.au/fwo/IDS60701/IDS60701.94809.axf

JavaScript Object Notation format (JSON) in row-major order
http://www.bom.gov.au/fwo/IDS60701/IDS60701.94809.json